Time;durP1;ratioP1;P1;durP2;ratioP2;P2;SDS_P1;SDS_P2;PMS_P1;PMS_P2;Temp;Humidity;BMP_temperature;BMP_pressure;BME280_temperature;BME280_humidity;BME280_pressure;Samples;Min_cycle;Max_cycle;Signal;HPM_P1;HPM_P2
2021/03/20 00:01:47;;;;;;;8.48;4.75;;;0.30;99.90;;;;;;5018800;28;20045;-69
2021/03/20 00:04:14;;;;;;;12.75;7.35;;;0.30;99.90;;;;;;5018259;28;20036;-70
2021/03/20 00:06:44;;;;;;;10.15;6.88;;;0.30;99.90;;;;;;5018540;28;20390;-69
2021/03/20 00:09:15;;;;;;;13.43;7.50;;;0.30;99.90;;;;;;5023692;28;20379;-69
2021/03/20 00:11:43;;;;;;;7.65;4.78;;;0.30;99.90;;;;;;5032916;28;20026;-69
2021/03/20 00:14:11;;;;;;;7.13;4.50;;;0.30;99.90;;;;;;5019107;28;20025;-68
2021/03/20 00:16:38;;;;;;;8.45;5.00;;;0.30;99.90;;;;;;5034021;28;20034;-69
2021/03/20 00:19:04;;;;;;;5.90;3.83;;;0.30;99.90;;;;;;5017375;28;20034;-69
2021/03/20 00:21:31;;;;;;;7.82;3.72;;;0.30;99.90;;;;;;5014950;28;20033;-69
2021/03/20 00:23:57;;;;;;;7.57;4.88;;;0.20;99.90;;;;;;5018076;28;20583;-68
2021/03/20 00:26:24;;;;;;;11.07;5.30;;;0.20;99.90;;;;;;5033415;28;20029;-69
2021/03/20 00:28:52;;;;;;;11.73;5.32;;;0.20;99.90;;;;;;5032398;28;20053;-68
2021/03/20 00:31:19;;;;;;;7.93;4.60;;;0.10;99.90;;;;;;5027848;28;20056;-68
2021/03/20 00:33:46;;;;;;;11.20;4.93;;;0.10;99.90;;;;;;5021090;28;20025;-68
2021/03/20 00:36:13;;;;;;;7.80;4.80;;;0.10;99.90;;;;;;5028385;28;20410;-69
2021/03/20 00:38:40;;;;;;;11.63;6.22;;;0.10;99.90;;;;;;5031535;28;20040;-69
2021/03/20 00:41:08;;;;;;;9.30;6.20;;;0.00;99.90;;;;;;5022676;28;20033;-68
2021/03/20 00:43:35;;;;;;;7.63;4.53;;;-0.10;99.90;;;;;;5014842;28;20042;-68
2021/03/20 00:46:05;;;;;;;7.13;4.97;;;-0.20;99.90;;;;;;5018125;28;20040;-69
2021/03/20 00:48:33;;;;;;;9.80;5.68;;;-0.30;99.90;;;;;;5026320;28;20025;-68
2021/03/20 00:51:02;;;;;;;10.07;5.88;;;-0.30;99.90;;;;;;5014325;28;20045;-69
2021/03/20 00:53:30;;;;;;;9.25;5.80;;;-0.40;99.90;;;;;;5014428;28;20030;-69
2021/03/20 00:55:58;;;;;;;10.40;6.28;;;-0.30;99.90;;;;;;5015286;28;20491;-69
2021/03/20 00:58:33;;;;;;;9.48;5.70;;;-0.30;99.90;;;;;;5014333;28;20038;-69
2021/03/20 01:01:21;;;;;;;11.05;6.47;;;-0.30;99.90;;;;;;5016992;28;20400;-69
2021/03/20 01:03:50;;;;;;;10.75;7.38;;;-0.40;99.90;;;;;;5015109;28;20030;-69
2021/03/20 01:06:19;;;;;;;14.68;8.05;;;-0.40;99.90;;;;;;5014631;28;20384;-70
2021/03/20 01:08:45;;;;;;;12.98;7.80;;;-0.40;99.90;;;;;;5031601;28;20033;-70
2021/03/20 01:11:13;;;;;;;10.20;6.70;;;-0.40;99.90;;;;;;5013537;28;20060;-69
2021/03/20 01:13:40;;;;;;;9.52;5.90;;;-0.40;99.90;;;;;;5014328;28;20472;-69
2021/03/20 01:16:06;;;;;;;9.25;5.85;;;-0.30;99.90;;;;;;5026567;28;20040;-69
2021/03/20 01:18:33;;;;;;;13.10;6.35;;;-0.40;99.90;;;;;;5024765;28;20052;-69
2021/03/20 01:20:59;;;;;;;9.88;5.97;;;-0.40;99.90;;;;;;5014325;28;20033;-69
2021/03/20 01:23:25;;;;;;;8.70;5.75;;;-0.40;99.90;;;;;;5013363;28;20041;-69
2021/03/20 01:25:52;;;;;;;12.70;6.63;;;-0.40;99.90;;;;;;5025687;28;20060;-69
2021/03/20 01:28:21;;;;;;;11.93;6.25;;;-0.40;99.90;;;;;;5022385;28;20379;-70
2021/03/20 01:30:47;;;;;;;9.10;5.78;;;-0.40;99.90;;;;;;5014373;28;20038;-69
2021/03/20 01:33:13;;;;;;;9.90;6.82;;;-0.40;99.90;;;;;;5031110;28;20045;-69
2021/03/20 01:35:40;;;;;;;11.70;6.75;;;-0.40;99.90;;;;;;5013598;28;20479;-68
2021/03/20 01:38:06;;;;;;;13.95;7.60;;;-0.40;99.90;;;;;;5013990;28;20030;-68
2021/03/20 01:40:39;;;;;;;10.05;6.90;;;-0.40;99.90;;;;;;5013865;28;20059;-68
2021/03/20 01:43:07;;;;;;;11.88;6.68;;;-0.40;99.90;;;;;;5014644;28;20033;-69
2021/03/20 01:45:36;;;;;;;11.23;7.38;;;-0.40;99.90;;;;;;5013531;28;20051;-69
2021/03/20 01:48:20;;;;;;;10.63;6.25;;;-0.50;99.90;;;;;;5013888;28;20476;-69
2021/03/20 01:51:04;;;;;;;11.63;6.45;;;-0.60;99.90;;;;;;5014072;28;20046;-69
2021/03/20 01:53:46;;;;;;;9.07;6.10;;;-0.70;99.90;;;;;;5013228;28;20467;-69
2021/03/20 01:56:22;;;;;;;10.27;6.32;;;-0.70;99.90;;;;;;5014229;28;20050;-68
2021/03/20 01:58:51;;;;;;;10.70;6.53;;;-0.80;99.90;;;;;;5013682;28;20038;-69
2021/03/20 02:01:29;;;;;;;12.07;6.30;;;-0.80;99.90;;;;;;5013278;28;20038;-69
2021/03/20 02:03:58;;;;;;;11.82;6.75;;;-0.80;99.90;;;;;;5014492;28;20038;-69
2021/03/20 02:06:24;;;;;;;12.50;7.13;;;-0.90;99.90;;;;;;5013964;28;20050;-69
2021/03/20 02:08:53;;;;;;;11.52;6.82;;;-0.90;99.90;;;;;;5013727;28;20033;-69
2021/03/20 02:11:39;;;;;;;10.93;6.35;;;-1.00;99.90;;;;;;5017571;28;20042;-69
2021/03/20 02:14:41;;;;;;;12.93;6.95;;;-1.00;99.90;;;;;;5015068;28;20029;-69
2021/03/20 02:17:28;;;;;;;12.02;6.40;;;-1.00;99.90;;;;;;5018951;28;20034;-69
2021/03/20 02:20:06;;;;;;;11.10;6.57;;;-1.00;99.90;;;;;;5028937;28;20488;-69
2021/03/20 02:22:56;;;;;;;11.77;6.90;;;-1.10;99.90;;;;;;5014938;28;20053;-69
2021/03/20 02:25:47;;;;;;;12.32;7.07;;;-1.10;99.90;;;;;;5031337;28;20037;-69
2021/03/20 02:28:32;;;;;;;;;;;-1.20;99.90;;;;;;5025424;28;20053;-69
2021/03/20 02:31:35;;;;;;;10.50;6.90;;;-1.30;99.90;;;;;;5021836;28;19920;-69
2021/03/20 02:34:30;;;;;;;11.95;6.18;;;-1.30;99.90;;;;;;5022037;28;20041;-68
2021/03/20 02:37:14;;;;;;;16.75;6.93;;;-1.20;99.90;;;;;;5025954;28;20033;-69
2021/03/20 02:39:49;;;;;;;9.30;6.28;;;-1.30;99.90;;;;;;5017827;28;20033;-69
2021/03/20 02:42:24;;;;;;;12.25;7.22;;;-1.40;99.90;;;;;;5014311;28;20033;-69
2021/03/20 02:44:54;;;;;;;11.55;7.07;;;-1.50;99.90;;;;;;5031521;28;20041;-69
2021/03/20 02:47:29;;;;;;;15.18;7.07;;;-1.60;99.90;;;;;;5020784;28;20037;-69
2021/03/20 02:50:09;;;;;;;14.65;8.00;;;-1.50;99.90;;;;;;5029308;28;20033;-69
2021/03/20 02:53:03;;;;;;;16.35;8.13;;;-1.50;99.90;;;;;;5013202;28;20046;-71
2021/03/20 02:55:38;;;;;;;11.60;7.43;;;-1.50;99.90;;;;;;5011746;28;20049;-70
2021/03/20 02:58:12;;;;;;;17.33;8.15;;;-1.40;99.90;;;;;;5012985;28;20041;-70
2021/03/20 03:00:47;;;;;;;12.85;8.25;;;-1.50;99.90;;;;;;5030532;28;20049;-70
2021/03/20 03:03:16;;;;;;;17.10;8.77;;;-1.50;99.90;;;;;;5021763;28;20329;-70
2021/03/20 03:05:54;;;;;;;13.52;7.30;;;-1.50;99.90;;;;;;5012356;28;20347;-69
2021/03/20 03:08:34;;;;;;;12.35;6.90;;;-1.60;99.90;;;;;;5012686;28;20030;-69
2021/03/20 03:11:12;;;;;;;11.48;6.70;;;-1.60;99.90;;;;;;5025380;28;20026;-69
2021/03/20 03:13:44;;;;;;;12.45;6.90;;;-1.70;99.90;;;;;;5012469;28;20041;-69
2021/03/20 03:16:19;;;;;;;12.82;7.72;;;-1.70;99.90;;;;;;5022040;28;20030;-69
2021/03/20 03:18:51;;;;;;;14.00;8.27;;;-1.80;99.90;;;;;;5025959;28;20038;-69
2021/03/20 03:21:19;;;;;;;15.02;7.93;;;-1.80;99.90;;;;;;5016900;28;20041;-69
2021/03/20 03:23:46;;;;;;;11.88;7.40;;;-1.80;99.90;;;;;;5017892;28;20383;-69
2021/03/20 03:26:26;;;;;;;14.30;7.50;;;-1.80;99.90;;;;;;5012742;28;20037;-69
2021/03/20 03:29:02;;;;;;;16.87;8.53;;;-1.80;99.90;;;;;;5012236;28;20447;-70
2021/03/20 03:31:34;;;;;;;17.55;8.05;;;-1.80;99.90;;;;;;5011886;28;20042;-70
2021/03/20 03:34:05;;;;;;;13.50;8.20;;;-1.80;99.90;;;;;;5012672;28;20042;-69
2021/03/20 03:37:07;;;;;;;13.18;8.70;;;-1.80;99.90;;;;;;5010986;28;20533;-69
2021/03/20 03:39:45;;;;;;;12.90;8.02;;;-1.80;99.90;;;;;;5006304;28;20069;-69
2021/03/20 03:42:16;;;;;;;16.48;8.05;;;-1.70;99.90;;;;;;5012476;28;20026;-70
2021/03/20 03:44:49;;;;;;;14.65;8.73;;;-1.70;99.90;;;;;;5012076;28;20037;-70
2021/03/20 03:47:22;;;;;;;13.38;7.60;;;-1.80;99.90;;;;;;5025957;28;20037;-70
2021/03/20 03:49:49;;;;;;;12.18;7.47;;;-1.70;99.90;;;;;;5034203;28;20030;-69
2021/03/20 03:52:16;;;;;;;16.05;8.88;;;-1.70;99.90;;;;;;5034921;28;20054;-70
2021/03/20 03:54:42;;;;;;;14.63;9.10;;;-1.70;99.90;;;;;;5017558;28;20029;-70
2021/03/20 03:57:11;;;;;;;12.63;8.40;;;-1.70;99.90;;;;;;5029545;28;20052;-70
2021/03/20 04:00:09;;;;;;;12.43;8.20;;;-1.70;99.90;;;;;;5022111;28;20049;-70
2021/03/20 04:03:05;;;;;;;15.15;9.32;;;-1.80;99.90;;;;;;5014268;28;20471;-70
2021/03/20 04:05:52;;;;;;;16.83;7.95;;;-1.80;99.90;;;;;;5014975;28;20044;-70
2021/03/20 04:08:42;;;;;;;14.25;8.40;;;-1.80;99.90;;;;;;5016003;28;20038;-70
2021/03/20 04:11:50;;;;;;;15.27;9.10;;;-1.80;99.90;;;;;;5015752;28;20033;-69
2021/03/20 04:14:52;;;;;;;15.07;8.32;;;-1.80;99.90;;;;;;5020618;28;20033;-69
2021/03/20 04:17:24;;;;;;;;;;;-1.90;99.90;;;;;;5029978;28;20054;-70
2021/03/20 04:20:43;;;;;;;13.25;7.50;;;-2.00;99.90;;;;;;5014126;28;19914;-69
2021/03/20 04:23:24;;;;;;;15.85;8.70;;;-2.00;99.90;;;;;;5014140;28;20041;-69
2021/03/20 04:25:55;;;;;;;10.50;5.60;;;-2.00;99.90;;;;;;5015370;28;20034;-69
2021/03/20 04:28:44;;;;;;;14.98;8.10;;;-2.30;99.90;;;;;;5020395;28;20136;-70
2021/03/20 04:31:36;;;;;;;13.73;7.35;;;-2.30;99.90;;;;;;5033899;28;20041;-70
2021/03/20 04:34:29;;;;;;;11.80;7.22;;;-2.30;99.90;;;;;;5024476;28;20038;-69
2021/03/20 04:37:04;;;;;;;14.10;8.80;;;-2.40;99.90;;;;;;5025172;28;20040;-69
2021/03/20 04:39:34;;;;;;;14.00;8.23;;;-2.40;99.90;;;;;;5014637;28;20037;-69
2021/03/20 04:42:01;;;;;;;18.45;9.13;;;-2.40;99.90;;;;;;5015878;28;20049;-69
2021/03/20 04:44:28;;;;;;;16.90;11.18;;;-2.30;99.90;;;;;;5015134;28;20033;-69
2021/03/20 04:46:54;;;;;;;18.50;10.45;;;-2.30;99.90;;;;;;5015344;28;20045;-70
2021/03/20 04:49:38;;;;;;;41.63;26.00;;;-2.40;99.90;;;;;;5014692;28;20045;-71
2021/03/20 04:52:20;;;;;;;35.00;20.42;;;-2.40;99.90;;;;;;5020595;28;20037;-69
2021/03/20 04:54:47;;;;;;;19.25;12.60;;;-2.50;99.90;;;;;;5018639;28;20038;-69
2021/03/20 04:57:34;;;;;;;17.60;10.45;;;-2.50;99.90;;;;;;5023385;28;20041;-69
2021/03/20 05:00:07;;;;;;;16.50;8.77;;;-2.50;99.90;;;;;;5032061;28;20037;-69
2021/03/20 05:02:57;;;;;;;15.00;8.55;;;-2.60;99.90;;;;;;5029374;28;20037;-70
2021/03/20 05:05:40;;;;;;;14.38;8.48;;;-2.50;99.90;;;;;;5014310;28;20034;-68
2021/03/20 05:08:18;;;;;;;14.18;8.93;;;-2.60;99.90;;;;;;5033448;28;20037;-68
2021/03/20 05:10:57;;;;;;;16.63;9.70;;;-2.50;99.90;;;;;;5014098;28;20057;-68
2021/03/20 05:13:47;;;;;;;19.02;10.93;;;-2.40;99.90;;;;;;5033336;28;20052;-69
2021/03/20 05:16:15;;;;;;;25.52;12.02;;;-2.30;99.90;;;;;;5024841;28;20398;-68
2021/03/20 05:18:47;;;;;;;19.90;11.73;;;-2.40;99.90;;;;;;5031974;28;20453;-69
2021/03/20 05:21:19;;;;;;;21.48;10.82;;;-2.40;99.90;;;;;;5033145;28;20037;-69
2021/03/20 05:23:46;;;;;;;20.50;11.40;;;-2.30;99.90;;;;;;5032147;28;20064;-69
2021/03/20 05:26:13;;;;;;;20.00;11.02;;;-2.30;99.90;;;;;;5031708;28;20410;-69
2021/03/20 05:28:39;;;;;;;18.05;11.02;;;-2.20;99.90;;;;;;5021609;28;20053;-69
2021/03/20 05:31:07;;;;;;;16.52;9.80;;;-2.10;99.90;;;;;;5014423;28;20041;-69
2021/03/20 05:33:34;;;;;;;19.88;11.30;;;-2.20;99.90;;;;;;5014176;28;20045;-69
2021/03/20 05:36:00;;;;;;;17.95;11.05;;;-2.20;99.90;;;;;;5013932;28;20070;-69
2021/03/20 05:38:26;;;;;;;19.10;10.20;;;-2.30;99.90;;;;;;5013836;28;20038;-69
2021/03/20 05:41:19;;;;;;;20.75;11.60;;;-2.40;99.90;;;;;;5013956;28;20506;-69
2021/03/20 05:44:08;;;;;;;16.52;9.43;;;-2.40;99.90;;;;;;5013750;28;20490;-69
2021/03/20 05:47:09;;;;;;;14.77;9.73;;;-2.30;99.90;;;;;;5025134;28;20034;-69
2021/03/20 05:50:12;;;;;;;17.73;9.98;;;-2.20;99.90;;;;;;5018473;28;20049;-70
2021/03/20 05:53:02;;;;;;;14.02;7.78;;;-2.20;99.90;;;;;;5023246;28;20498;-69
2021/03/20 05:55:31;;;;;;;19.40;10.20;;;-2.20;99.90;;;;;;5023962;28;20041;-70
2021/03/20 05:58:18;;;;;;;19.40;10.07;;;-2.10;99.90;;;;;;5013634;28;20033;-69
2021/03/20 06:00:53;;;;;;;18.52;10.30;;;-2.00;99.90;;;;;;5013186;28;20053;-70
2021/03/20 06:03:47;;;;;;;13.43;9.27;;;-2.00;99.90;;;;;;5013452;28;20038;-70
2021/03/20 06:06:59;;;;;;;17.67;9.40;;;-2.00;99.90;;;;;;5013735;28;20506;-69
2021/03/20 06:09:43;;;;;;;18.75;9.70;;;-1.90;99.90;;;;;;5013612;28;20428;-70
2021/03/20 06:12:48;;;;;;;19.95;10.98;;;-1.90;99.90;;;;;;5028426;28;20041;-69
2021/03/20 06:15:37;;;;;;;14.95;8.55;;;-1.90;99.90;;;;;;4998856;28;20034;-69
2021/03/20 06:18:29;;;;;;;13.32;8.85;;;-1.80;99.90;;;;;;5010280;28;20033;-69
2021/03/20 06:21:04;;;;;;;14.68;8.35;;;-1.70;99.90;;;;;;5012409;28;20046;-70
2021/03/20 06:24:08;;;;;;;11.68;7.90;;;-1.70;99.90;;;;;;5013061;28;20033;-70
2021/03/20 06:26:38;;;;;;;13.63;7.65;;;-1.70;99.90;;;;;;5012895;28;20034;-70
2021/03/20 06:29:16;;;;;;;11.50;7.07;;;-1.60;99.90;;;;;;5013547;28;20383;-69
2021/03/20 06:31:45;;;;;;;10.77;6.68;;;-1.50;99.90;;;;;;5013098;28;20388;-70
2021/03/20 06:34:18;;;;;;;12.93;7.32;;;-1.40;99.90;;;;;;5012227;28;20045;-69
2021/03/20 06:36:50;;;;;;;12.57;7.22;;;-1.30;99.90;;;;;;5012928;28;20037;-70
2021/03/20 06:39:39;;;;;;;10.38;6.47;;;-1.20;99.90;;;;;;5013776;28;20038;-69
2021/03/20 06:42:35;;;;;;;9.50;5.57;;;-1.10;99.90;;;;;;5013668;28;20046;-70
2021/03/20 06:45:12;;;;;;;10.13;5.57;;;-0.90;99.90;;;;;;5013141;28;20380;-69
2021/03/20 06:47:40;;;;;;;9.50;6.13;;;-0.80;99.90;;;;;;5012658;28;20038;-70
2021/03/20 06:50:28;;;;;;;10.95;5.47;;;-0.60;99.90;;;;;;5013210;28;20049;-70
2021/03/20 06:52:58;;;;;;;8.75;5.60;;;-0.60;99.90;;;;;;5020038;28;20049;-70
2021/03/20 06:55:28;;;;;;;9.18;6.07;;;-0.50;99.90;;;;;;5013060;28;20375;-72
2021/03/20 06:57:55;;;;;;;11.65;6.78;;;-0.30;99.90;;;;;;5013362;28;20046;-70
2021/03/20 07:00:21;;;;;;;7.57;5.20;;;-0.20;99.90;;;;;;5013060;28;20045;-68
2021/03/20 07:03:24;;;;;;;10.02;5.50;;;-0.20;99.90;;;;;;5010999;28;20452;-69
2021/03/20 07:06:03;;;;;;;8.70;5.28;;;-0.20;99.90;;;;;;5020148;28;20502;-69
2021/03/20 07:08:35;;;;;;;8.57;5.32;;;-0.20;99.90;;;;;;5018817;28;20046;-69
2021/03/20 07:11:01;;;;;;;9.13;6.07;;;0.00;99.90;;;;;;5025849;28;20357;-69
2021/03/20 07:13:44;;;;;;;7.85;4.25;;;0.30;99.90;;;;;;5019300;28;20045;-69
2021/03/20 07:16:14;;;;;;;8.77;5.65;;;0.40;99.90;;;;;;5030930;28;20032;-69
2021/03/20 07:18:42;;;;;;;7.78;5.18;;;0.80;99.90;;;;;;5028208;28;20038;-69
2021/03/20 07:21:34;;;;;;;5.93;4.65;;;1.50;99.90;;;;;;5029430;28;20030;-69
2021/03/20 07:24:30;;;;;;;5.80;4.80;;;2.10;99.90;;;;;;5017117;28;20491;-73
2021/03/20 07:27:16;;;;;;;7.30;4.65;;;2.60;99.90;;;;;;5028597;28;20048;-74
2021/03/20 07:29:52;;;;;;;7.40;4.90;;;2.70;96.80;;;;;;5034876;28;20033;-72
2021/03/20 07:32:26;;;;;;;5.75;3.78;;;3.90;94.00;;;;;;5022253;28;20041;-72
2021/03/20 07:34:58;;;;;;;5.60;4.45;;;3.90;91.50;;;;;;5016057;28;20025;-72
2021/03/20 07:37:27;;;;;;;5.65;4.07;;;4.80;87.40;;;;;;5016063;28;20044;-74
2021/03/20 07:39:59;;;;;;;5.35;4.07;;;4.90;82.00;;;;;;5015966;28;20049;-75
2021/03/20 07:42:28;;;;;;;6.22;4.50;;;4.80;82.20;;;;;;5015589;28;20029;-75
2021/03/20 07:45:04;;;;;;;5.00;3.88;;;4.60;80.80;;;;;;5019018;28;20033;-74
2021/03/20 07:47:53;;;;;;;4.97;3.83;;;5.40;79.10;;;;;;5034177;28;20025;-75
2021/03/20 07:50:20;;;;;;;5.55;3.47;;;5.70;73.80;;;;;;5034532;28;20057;-74
2021/03/20 07:52:58;;;;;;;6.20;3.95;;;6.30;71.60;;;;;;5023452;28;20037;-74
2021/03/20 07:55:25;;;;;;;5.05;3.45;;;6.50;67.60;;;;;;5026251;28;20468;-74
2021/03/20 07:57:53;;;;;;;4.47;3.42;;;6.00;67.40;;;;;;5034237;28;20037;-74
2021/03/20 08:00:32;;;;;;;5.20;3.13;;;6.20;66.40;;;;;;5015840;28;20491;-70
2021/03/20 08:03:06;;;;;;;6.68;3.78;;;5.90;68.00;;;;;;5021498;28;20077;-71
2021/03/20 08:05:36;;;;;;;4.35;2.60;;;6.00;66.70;;;;;;5030602;28;20049;-72
2021/03/20 08:08:20;;;;;;;4.77;3.20;;;6.70;65.10;;;;;;5029353;28;20034;-72
2021/03/20 08:10:57;;;;;;;4.88;3.08;;;7.60;60.00;;;;;;5024566;28;20044;-71
2021/03/20 08:13:38;;;;;;;5.78;3.03;;;6.60;60.90;;;;;;5019792;28;20097;-76
2021/03/20 08:16:05;;;;;;;3.47;2.75;;;5.80;62.00;;;;;;5016028;28;20049;-75
2021/03/20 08:18:36;;;;;;;3.33;2.40;;;5.50;63.60;;;;;;5015137;28;20057;-75
2021/03/20 08:21:15;;;;;;;3.92;2.80;;;6.60;59.70;;;;;;5015725;28;20499;-75
2021/03/20 08:24:02;;;;;;;5.20;3.17;;;7.00;55.20;;;;;;5015892;28;20052;-74
2021/03/20 08:26:54;;;;;;;5.47;2.72;;;6.50;55.60;;;;;;5028219;28;20034;-73
2021/03/20 08:29:56;;;;;;;4.65;2.45;;;5.00;57.20;;;;;;5030963;28;20038;-74
2021/03/20 08:32:47;;;;;;;4.43;2.67;;;3.40;62.50;;;;;;5017239;28;20030;-74
2021/03/20 08:35:32;;;;;;;4.85;2.65;;;5.30;61.80;;;;;;5014634;28;20045;-75
2021/03/20 08:38:27;;;;;;;2.63;1.58;;;6.70;56.60;;;;;;5015033;28;20034;-74
2021/03/20 08:41:00;;;;;;;3.40;1.80;;;7.50;53.00;;;;;;5012280;28;20037;-76
2021/03/20 08:43:45;;;;;;;3.35;1.80;;;6.50;52.70;;;;;;5014901;28;20041;-76
2021/03/20 08:46:17;;;;;;;3.70;1.80;;;5.40;56.30;;;;;;5015122;28;20040;-75
2021/03/20 08:49:15;;;;;;;2.63;1.73;;;6.60;53.10;;;;;;5014972;28;20041;-75
2021/03/20 08:52:22;;;;;;;6.03;3.42;;;7.50;52.60;;;;;;5030888;28;20057;-75
2021/03/20 08:55:13;;;;;;;3.53;1.38;;;7.30;50.00;;;;;;5014669;28;20030;-75
2021/03/20 08:57:57;;;;;;;3.28;1.60;;;6.00;52.10;;;;;;5027794;28;20049;-75
2021/03/20 09:00:40;;;;;;;2.03;1.17;;;6.50;49.60;;;;;;5021729;28;20033;-74
2021/03/20 09:03:13;;;;;;;2.30;0.70;;;6.50;47.30;;;;;;5032846;28;20037;-73
2021/03/20 09:05:53;;;;;;;2.63;0.98;;;5.60;43.50;;;;;;5030662;28;20036;-74
2021/03/20 09:08:37;;;;;;;2.38;0.88;;;5.20;44.50;;;;;;5021618;28;20498;-73
2021/03/20 09:11:06;;;;;;;2.00;0.70;;;4.90;45.10;;;;;;5017191;28;20049;-73
2021/03/20 09:13:44;;;;;;;1.90;1.00;;;5.00;43.10;;;;;;5012871;28;20037;-72
2021/03/20 09:16:45;;;;;;;1.58;0.70;;;5.20;45.00;;;;;;5013780;28;20050;-76
2021/03/20 09:19:38;;;;;;;;;;;4.90;46.40;;;;;;4991897;28;20046;-79
2021/03/20 09:22:16;;;;;;;0.90;0.50;;;5.60;42.30;;;;;;5010829;28;19910;-80
2021/03/20 09:24:55;;;;;;;1.83;0.80;;;6.30;39.10;;;;;;5026070;28;20045;-81
2021/03/20 09:27:59;;;;;;;1.90;0.68;;;7.20;39.20;;;;;;5014337;28;20041;-80
2021/03/20 09:30:36;;;;;;;1.10;0.57;;;7.80;37.50;;;;;;5003223;28;20048;-77
2021/03/20 09:33:13;;;;;;;2.03;0.70;;;8.00;38.20;;;;;;5031195;28;20394;-83
2021/03/20 09:35:48;;;;;;;1.13;0.60;;;6.40;39.00;;;;;;5047335;28;20084;-81
2021/03/20 09:38:33;;;;;;;1.85;0.50;;;6.90;38.30;;;;;;5045432;28;20487;-77
2021/03/20 09:41:02;;;;;;;1.55;0.60;;;8.20;36.30;;;;;;5013581;28;20041;-75
2021/03/20 09:43:45;;;;;;;3.40;0.80;;;8.40;36.70;;;;;;5020656;28;20036;-76
2021/03/20 09:46:39;;;;;;;2.67;0.50;;;7.60;37.70;;;;;;5031931;28;20044;-75
2021/03/20 09:49:11;;;;;;;2.58;0.93;;;7.00;38.50;;;;;;5013433;28;20033;-76
2021/03/20 09:51:57;;;;;;;3.30;1.48;;;7.00;36.50;;;;;;5012867;28;20054;-77
2021/03/20 09:54:31;;;;;;;3.03;0.50;;;8.50;37.40;;;;;;5028745;28;20034;-77
2021/03/20 09:57:21;;;;;;;2.58;0.52;;;7.00;36.80;;;;;;5032452;28;20044;-76
2021/03/20 09:59:49;;;;;;;1.23;0.57;;;5.60;38.60;;;;;;5023551;28;20038;-71
2021/03/20 10:02:15;;;;;;;1.08;0.40;;;5.40;35.80;;;;;;5013637;28;20289;-75
2021/03/20 10:05:05;;;;;;;1.20;0.50;;;5.70;36.10;;;;;;5021220;28;20521;-75
2021/03/20 10:07:32;;;;;;;1.92;0.60;;;5.20;37.70;;;;;;5012997;28;20049;-75
2021/03/20 10:10:11;;;;;;;2.50;0.70;;;4.60;39.90;;;;;;5013617;28;20030;-76
2021/03/20 10:12:42;;;;;;;1.65;0.73;;;4.70;39.70;;;;;;5013447;28;20026;-76
2021/03/20 10:15:12;;;;;;;1.70;0.50;;;5.20;39.40;;;;;;5013610;28;20490;-76
2021/03/20 10:18:14;;;;;;;1.60;0.65;;;4.90;39.40;;;;;;5022372;28;20042;-74
2021/03/20 10:20:54;;;;;;;2.70;0.70;;;5.00;39.70;;;;;;5019600;28;20045;-75
2021/03/20 10:23:42;;;;;;;2.28;0.30;;;5.60;40.00;;;;;;5013859;28;20046;-75
2021/03/20 10:26:21;;;;;;;1.58;0.60;;;5.20;37.80;;;;;;5014215;28;20046;-75
2021/03/20 10:29:05;;;;;;;4.30;0.90;;;4.80;39.40;;;;;;5028740;28;20459;-74
2021/03/20 10:31:39;;;;;;;3.00;1.30;;;5.40;38.60;;;;;;5013137;28;20037;-74
2021/03/20 10:34:15;;;;;;;0.80;0.50;;;5.30;38.10;;;;;;5023124;28;20480;-74
2021/03/20 10:36:46;;;;;;;2.08;0.60;;;5.20;38.60;;;;;;5012519;28;20038;-73
2021/03/20 10:39:23;;;;;;;;;;;4.80;39.20;;;;;;5013471;28;20482;-73
2021/03/20 10:41:51;;;;;;;1.38;0.80;;;4.60;38.80;;;;;;5012065;28;19981;-75
2021/03/20 10:44:21;;;;;;;1.20;0.50;;;5.00;40.40;;;;;;5032402;28;20089;-74
2021/03/20 10:46:48;;;;;;;0.77;0.50;;;5.00;38.40;;;;;;5014755;28;20064;-75
2021/03/20 10:49:18;;;;;;;1.88;0.70;;;4.90;38.70;;;;;;5012685;28;20045;-76
2021/03/20 10:51:48;;;;;;;2.95;0.88;;;5.00;39.50;;;;;;5012196;28;20050;-75
2021/03/20 10:54:41;;;;;;;3.67;0.82;;;5.20;39.80;;;;;;5013027;28;20046;-74
2021/03/20 10:57:22;;;;;;;2.03;0.85;;;5.10;39.60;;;;;;5011125;28;20467;-74
2021/03/20 10:59:50;;;;;;;2.67;0.90;;;5.20;39.60;;;;;;5012286;28;20033;-74
2021/03/20 11:02:24;;;;;;;3.13;0.88;;;5.20;39.60;;;;;;5011442;28;20042;-74
2021/03/20 11:04:53;;;;;;;2.22;0.70;;;5.20;40.50;;;;;;5021579;28;20040;-74
2021/03/20 11:07:23;;;;;;;1.45;0.70;;;5.50;39.80;;;;;;5022679;28;20045;-74
2021/03/20 11:09:56;;;;;;;3.00;0.87;;;5.60;39.80;;;;;;5022900;28;20038;-74
2021/03/20 11:12:29;;;;;;;1.45;0.63;;;5.70;39.20;;;;;;5015138;28;20034;-75
2021/03/20 11:14:58;;;;;;;1.23;0.80;;;5.40;40.30;;;;;;5033616;28;20045;-73
2021/03/20 11:17:28;;;;;;;3.28;1.10;;;5.10;40.30;;;;;;5015372;28;20038;-74
2021/03/20 11:20:22;;;;;;;2.28;0.77;;;5.00;40.60;;;;;;5028910;28;20033;-74
2021/03/20 11:22:50;;;;;;;2.50;0.90;;;5.00;40.20;;;;;;5017891;28;20034;-74
2021/03/20 11:25:19;;;;;;;1.55;0.63;;;5.40;41.40;;;;;;5012607;28;20030;-75
2021/03/20 11:28:12;;;;;;;1.30;0.50;;;5.40;38.90;;;;;;5022716;28;20042;-74
2021/03/20 11:30:45;;;;;;;1.00;0.60;;;5.50;38.80;;;;;;5021022;28;20041;-75
2021/03/20 11:33:20;;;;;;;2.80;0.50;;;5.70;38.10;;;;;;5020943;28;20049;-75
2021/03/20 11:35:59;;;;;;;1.88;0.90;;;5.50;38.50;;;;;;5025414;28;20053;-75
2021/03/20 11:38:27;;;;;;;2.17;0.80;;;5.60;38.20;;;;;;5030685;28;20041;-74
2021/03/20 11:41:02;;;;;;;3.45;0.70;;;5.50;37.60;;;;;;5030370;28;20570;-74
2021/03/20 11:43:47;;;;;;;2.58;1.02;;;5.70;38.60;;;;;;5029595;28;20045;-75
2021/03/20 11:46:21;;;;;;;3.58;1.10;;;6.00;38.50;;;;;;5031444;28;20045;-74
2021/03/20 11:49:01;;;;;;;1.05;0.50;;;5.80;38.20;;;;;;5012666;28;20516;-75
2021/03/20 11:51:31;;;;;;;4.05;0.90;;;6.00;38.00;;;;;;5021869;28;20045;-75
2021/03/20 11:54:00;;;;;;;11.70;5.95;;;5.60;38.10;;;;;;5031900;28;20037;-76
2021/03/20 11:56:30;;;;;;;5.38;1.73;;;5.70;38.60;;;;;;5012679;28;20452;-75
2021/03/20 11:58:59;;;;;;;1.45;0.70;;;6.00;38.10;;;;;;5013059;28;20045;-74
2021/03/20 12:01:43;;;;;;;1.38;0.65;;;6.30;36.50;;;;;;5023327;28;20037;-74
2021/03/20 12:04:09;;;;;;;3.90;2.15;;;6.10;36.70;;;;;;5029670;28;20426;-73
2021/03/20 12:06:37;;;;;;;20.27;13.32;;;5.80;36.10;;;;;;5012869;28;20034;-74
2021/03/20 12:09:28;;;;;;;2.63;1.05;;;6.00;37.00;;;;;;5018265;28;20037;-73
2021/03/20 12:11:56;;;;;;;3.20;1.75;;;5.90;36.80;;;;;;5018758;28;20026;-74
2021/03/20 12:14:34;;;;;;;4.18;2.33;;;6.30;37.20;;;;;;5032099;28;20099;-73
2021/03/20 12:17:09;;;;;;;1.65;1.27;;;6.20;36.40;;;;;;5034606;28;20029;-74
2021/03/20 12:19:54;;;;;;;1.92;0.80;;;6.30;36.00;;;;;;5017308;28;20038;-74
2021/03/20 12:23:11;;;;;;;3.92;3.63;;;6.20;35.70;;;;;;5022997;28;20048;-73
2021/03/20 12:25:52;;;;;;;2.80;2.28;;;6.40;36.60;;;;;;5021154;28;20107;-73
2021/03/20 12:28:33;;;;;;;1.50;0.73;;;6.20;35.40;;;;;;5029751;28;20045;-73
2021/03/20 12:31:19;;;;;;;1.50;0.70;;;6.00;36.70;;;;;;5033934;28;20049;-73
2021/03/20 12:33:58;;;;;;;1.50;0.50;;;6.00;36.50;;;;;;5018780;28;20038;-73
2021/03/20 12:36:26;;;;;;;2.03;0.55;;;5.80;37.40;;;;;;5021086;28;20052;-73
2021/03/20 12:38:53;;;;;;;1.05;0.70;;;6.00;36.90;;;;;;5028319;28;20056;-73
2021/03/20 12:41:21;;;;;;;2.47;1.13;;;6.00;37.90;;;;;;5033630;28;20032;-74
2021/03/20 12:44:17;;;;;;;1.30;0.40;;;6.40;37.40;;;;;;5023854;28;20034;-74
2021/03/20 12:46:47;;;;;;;2.40;1.10;;;6.30;37.90;;;;;;5024649;28;20534;-75
2021/03/20 12:49:21;;;;;;;26.50;16.00;;;6.30;39.50;;;;;;5014879;28;20041;-75
2021/03/20 12:51:59;;;;;;;3.97;2.00;;;6.40;37.40;;;;;;5013679;28;20053;-76
2021/03/20 12:54:32;;;;;;;2.08;1.15;;;6.40;37.20;;;;;;5019271;28;20039;-75
2021/03/20 12:56:58;;;;;;;1.88;0.85;;;6.40;36.70;;;;;;5030868;28;20042;-74
2021/03/20 12:59:25;;;;;;;1.80;0.73;;;6.40;37.00;;;;;;5016393;28;20052;-74
2021/03/20 13:01:51;;;;;;;4.13;2.30;;;6.20;36.70;;;;;;5014943;28;20411;-75
2021/03/20 13:04:20;;;;;;;2.92;1.00;;;6.10;35.40;;;;;;5033631;28;20050;-74
2021/03/20 13:06:47;;;;;;;1.45;0.77;;;6.10;36.10;;;;;;5027669;28;20017;-75
2021/03/20 13:09:14;;;;;;;2.80;1.25;;;6.10;36.90;;;;;;5018880;28;20052;-75
2021/03/20 13:11:40;;;;;;;5.13;1.20;;;6.10;36.80;;;;;;5019084;28;20069;-75
2021/03/20 13:14:07;;;;;;;2.85;1.15;;;6.50;37.40;;;;;;5016126;28;20049;-74
2021/03/20 13:16:34;;;;;;;5.32;1.05;;;6.50;37.20;;;;;;5019407;28;20475;-75
2021/03/20 13:19:00;;;;;;;4.38;1.77;;;6.50;37.20;;;;;;5022088;28;20044;-74
2021/03/20 13:21:29;;;;;;;1.35;0.77;;;6.50;37.10;;;;;;5022947;28;20037;-75
2021/03/20 13:23:56;;;;;;;6.65;1.35;;;6.30;36.40;;;;;;5018436;28;20036;-75
2021/03/20 13:26:22;;;;;;;1.75;0.82;;;6.20;38.00;;;;;;5019339;28;20040;-75
2021/03/20 13:28:48;;;;;;;1.55;0.57;;;6.40;39.70;;;;;;5013123;28;20374;-74
2021/03/20 13:31:15;;;;;;;3.80;1.45;;;6.80;40.00;;;;;;5014665;28;20044;-75
2021/03/20 13:33:42;;;;;;;3.08;1.02;;;6.50;39.70;;;;;;5018720;28;21797;-76
2021/03/20 13:36:10;;;;;;;2.67;1.58;;;6.60;40.60;;;;;;5015303;28;20044;-74
2021/03/20 13:38:38;;;;;;;1.75;0.85;;;6.80;38.40;;;;;;5016411;28;20395;-76